sensor_id;sensor_type;location;lat;lon;timestamp;temperature;humidity
29295;DHT22;16305;48.566;8.846;2022-08-21T00:01:05;13.90;99.90
29295;DHT22;16305;48.566;8.846;2022-08-21T00:03:32;13.60;99.90
29295;DHT22;16305;48.566;8.846;2022-08-21T00:05:58;13.70;99.90
29295;DHT22;16305;48.566;8.846;2022-08-21T00:08:23;13.60;99.90
29295;DHT22;16305;48.566;8.846;2022-08-21T00:10:50;13.50;99.90
29295;DHT22;16305;48.566;8.846;2022-08-21T00:13:17;13.70;99.90
29295;DHT22;16305;48.566;8.846;2022-08-21T00:15:43;13.70;99.90
29295;DHT22;16305;48.566;8.846;2022-08-21T00:18:09;13.80;99.90
29295;DHT22;16305;48.566;8.846;2022-08-21T00:20:36;13.90;99.90
29295;DHT22;16305;48.566;8.846;2022-08-21T00:23:02;13.90;99.90
29295;DHT22;16305;48.566;8.846;2022-08-21T00:25:28;14.00;99.90
29295;DHT22;16305;48.566;8.846;2022-08-21T00:27:54;14.10;99.90
29295;DHT22;16305;48.566;8.846;2022-08-21T00:30:22;14.20;99.90
29295;DHT22;16305;48.566;8.846;2022-08-21T00:32:48;14.20;99.90
29295;DHT22;16305;48.566;8.846;2022-08-21T00:35:17;14.20;99.90
29295;DHT22;16305;48.566;8.846;2022-08-21T00:37:43;14.10;99.90
29295;DHT22;16305;48.566;8.846;2022-08-21T00:40:14;14.00;99.90
29295;DHT22;16305;48.566;8.846;2022-08-21T00:42:40;14.00;99.90
29295;DHT22;16305;48.566;8.846;2022-08-21T00:45:06;14.00;99.90
29295;DHT22;16305;48.566;8.846;2022-08-21T00:47:32;14.10;99.90
29295;DHT22;16305;48.566;8.846;2022-08-21T00:49:58;13.80;99.90
29295;DHT22;16305;48.566;8.846;2022-08-21T00:52:27;13.80;99.90
29295;DHT22;16305;48.566;8.846;2022-08-21T00:54:55;13.60;99.90
29295;DHT22;16305;48.566;8.846;2022-08-21T00:57:26;13.60;99.90
29295;DHT22;16305;48.566;8.846;2022-08-21T00:59:53;13.40;99.90
29295;DHT22;16305;48.566;8.846;2022-08-21T01:02:20;13.20;99.90
29295;DHT22;16305;48.566;8.846;2022-08-21T01:04:46;13.10;99.90
29295;DHT22;16305;48.566;8.846;2022-08-21T01:07:12;13.10;99.90
29295;DHT22;16305;48.566;8.846;2022-08-21T01:09:38;13.00;99.90
29295;DHT22;16305;48.566;8.846;2022-08-21T01:12:04;13.00;99.90
29295;DHT22;16305;48.566;8.846;2022-08-21T01:14:30;12.80;99.90
29295;DHT22;16305;48.566;8.846;2022-08-21T01:16:57;12.80;99.90
29295;DHT22;16305;48.566;8.846;2022-08-21T01:19:24;12.90;99.90
29295;DHT22;16305;48.566;8.846;2022-08-21T01:21:51;13.10;99.90
29295;DHT22;16305;48.566;8.846;2022-08-21T01:24:17;13.10;99.90
29295;DHT22;16305;48.566;8.846;2022-08-21T01:26:43;13.20;99.90
29295;DHT22;16305;48.566;8.846;2022-08-21T01:29:16;13.30;99.90
29295;DHT22;16305;48.566;8.846;2022-08-21T01:31:45;13.30;99.90
29295;DHT22;16305;48.566;8.846;2022-08-21T01:34:11;13.30;99.90
29295;DHT22;16305;48.566;8.846;2022-08-21T01:36:37;13.40;99.90
29295;DHT22;16305;48.566;8.846;2022-08-21T01:39:04;13.50;99.90
29295;DHT22;16305;48.566;8.846;2022-08-21T01:41:30;13.50;99.90
29295;DHT22;16305;48.566;8.846;2022-08-21T01:43:55;13.50;99.90
29295;DHT22;16305;48.566;8.846;2022-08-21T01:46:21;13.50;99.90
29295;DHT22;16305;48.566;8.846;2022-08-21T01:48:47;13.50;99.90
29295;DHT22;16305;48.566;8.846;2022-08-21T01:51:13;13.50;99.90
29295;DHT22;16305;48.566;8.846;2022-08-21T01:53:38;13.60;99.90
29295;DHT22;16305;48.566;8.846;2022-08-21T01:56:07;13.60;99.90
29295;DHT22;16305;48.566;8.846;2022-08-21T01:58:33;13.20;99.90
29295;DHT22;16305;48.566;8.846;2022-08-21T02:01:00;13.00;99.90
29295;DHT22;16305;48.566;8.846;2022-08-21T02:03:27;12.90;99.90
29295;DHT22;16305;48.566;8.846;2022-08-21T02:05:53;12.90;99.90
29295;DHT22;16305;48.566;8.846;2022-08-21T02:08:19;13.00;99.90
29295;DHT22;16305;48.566;8.846;2022-08-21T02:10:48;13.00;99.90
29295;DHT22;16305;48.566;8.846;2022-08-21T02:13:14;12.90;99.90
29295;DHT22;16305;48.566;8.846;2022-08-21T02:15:40;12.80;99.90
29295;DHT22;16305;48.566;8.846;2022-08-21T02:18:06;12.80;99.90
29295;DHT22;16305;48.566;8.846;2022-08-21T02:20:38;12.70;99.90
29295;DHT22;16305;48.566;8.846;2022-08-21T02:23:04;12.90;99.90
29295;DHT22;16305;48.566;8.846;2022-08-21T02:25:31;12.80;99.90
29295;DHT22;16305;48.566;8.846;2022-08-21T02:27:57;12.80;99.90
29295;DHT22;16305;48.566;8.846;2022-08-21T02:30:29;12.80;99.90
29295;DHT22;16305;48.566;8.846;2022-08-21T02:32:55;12.70;99.90
29295;DHT22;16305;48.566;8.846;2022-08-21T02:35:21;12.70;99.90
29295;DHT22;16305;48.566;8.846;2022-08-21T02:37:50;12.80;99.90
29295;DHT22;16305;48.566;8.846;2022-08-21T02:40:19;12.90;99.90
29295;DHT22;16305;48.566;8.846;2022-08-21T02:42:45;13.00;99.90
29295;DHT22;16305;48.566;8.846;2022-08-21T02:45:11;12.70;99.90
29295;DHT22;16305;48.566;8.846;2022-08-21T02:47:37;12.40;99.90
29295;DHT22;16305;48.566;8.846;2022-08-21T02:50:04;12.30;99.90
29295;DHT22;16305;48.566;8.846;2022-08-21T02:52:30;12.30;99.90
29295;DHT22;16305;48.566;8.846;2022-08-21T02:54:55;12.20;99.90
29295;DHT22;16305;48.566;8.846;2022-08-21T02:57:21;12.30;99.90
29295;DHT22;16305;48.566;8.846;2022-08-21T02:59:47;12.50;99.90
29295;DHT22;16305;48.566;8.846;2022-08-21T03:02:12;12.50;99.90
29295;DHT22;16305;48.566;8.846;2022-08-21T03:04:38;12.40;99.90
29295;DHT22;16305;48.566;8.846;2022-08-21T03:07:04;12.40;99.90
29295;DHT22;16305;48.566;8.846;2022-08-21T03:09:29;12.40;99.90
29295;DHT22;16305;48.566;8.846;2022-08-21T03:11:54;12.40;99.90
29295;DHT22;16305;48.566;8.846;2022-08-21T03:14:20;12.50;99.90
29295;DHT22;16305;48.566;8.846;2022-08-21T03:16:45;12.40;99.90
29295;DHT22;16305;48.566;8.846;2022-08-21T03:19:11;12.30;99.90
29295;DHT22;16305;48.566;8.846;2022-08-21T03:21:38;12.40;99.90
29295;DHT22;16305;48.566;8.846;2022-08-21T03:24:03;12.40;99.90
29295;DHT22;16305;48.566;8.846;2022-08-21T03:26:30;12.50;99.90
29295;DHT22;16305;48.566;8.846;2022-08-21T03:28:55;12.50;99.90
29295;DHT22;16305;48.566;8.846;2022-08-21T03:31:23;12.40;99.90
29295;DHT22;16305;48.566;8.846;2022-08-21T03:33:48;12.40;99.90
29295;DHT22;16305;48.566;8.846;2022-08-21T03:36:15;12.40;99.90
29295;DHT22;16305;48.566;8.846;2022-08-21T03:38:41;12.50;99.90
29295;DHT22;16305;48.566;8.846;2022-08-21T03:41:08;12.50;99.90
29295;DHT22;16305;48.566;8.846;2022-08-21T03:43:34;12.50;99.90
29295;DHT22;16305;48.566;8.846;2022-08-21T03:46:01;12.20;99.90
29295;DHT22;16305;48.566;8.846;2022-08-21T03:48:27;12.10;99.90
29295;DHT22;16305;48.566;8.846;2022-08-21T03:50:53;11.90;99.90
29295;DHT22;16305;48.566;8.846;2022-08-21T03:53:18;11.80;99.90
29295;DHT22;16305;48.566;8.846;2022-08-21T03:55:46;11.90;99.90
29295;DHT22;16305;48.566;8.846;2022-08-21T03:58:13;12.00;99.90
29295;DHT22;16305;48.566;8.846;2022-08-21T04:00:38;11.70;99.90
29295;DHT22;16305;48.566;8.846;2022-08-21T04:03:04;11.60;99.90
29295;DHT22;16305;48.566;8.846;2022-08-21T04:05:29;11.50;99.90
29295;DHT22;16305;48.566;8.846;2022-08-21T04:07:57;11.40;99.90
29295;DHT22;16305;48.566;8.846;2022-08-21T04:10:24;11.40;99.90
29295;DHT22;16305;48.566;8.846;2022-08-21T04:12:50;11.50;99.90
29295;DHT22;16305;48.566;8.846;2022-08-21T04:15:16;11.50;99.90
29295;DHT22;16305;48.566;8.846;2022-08-21T04:17:42;11.40;99.90
29295;DHT22;16305;48.566;8.846;2022-08-21T04:20:08;11.30;99.90
29295;DHT22;16305;48.566;8.846;2022-08-21T04:22:33;11.30;99.90
29295;DHT22;16305;48.566;8.846;2022-08-21T04:24:59;11.30;99.90
29295;DHT22;16305;48.566;8.846;2022-08-21T04:27:24;11.30;99.90
29295;DHT22;16305;48.566;8.846;2022-08-21T04:29:50;11.30;99.90
29295;DHT22;16305;48.566;8.846;2022-08-21T04:32:23;11.20;99.90
29295;DHT22;16305;48.566;8.846;2022-08-21T04:34:48;11.10;99.90
29295;DHT22;16305;48.566;8.846;2022-08-21T04:37:14;11.10;99.90
29295;DHT22;16305;48.566;8.846;2022-08-21T04:39:41;10.90;99.90
29295;DHT22;16305;48.566;8.846;2022-08-21T04:42:07;11.00;99.90
29295;DHT22;16305;48.566;8.846;2022-08-21T04:44:34;11.10;99.90
29295;DHT22;16305;48.566;8.846;2022-08-21T04:46:59;11.10;99.90
29295;DHT22;16305;48.566;8.846;2022-08-21T04:49:25;11.10;99.90
29295;DHT22;16305;48.566;8.846;2022-08-21T04:51:50;11.20;99.90
29295;DHT22;16305;48.566;8.846;2022-08-21T04:54:25;11.30;99.90
29295;DHT22;16305;48.566;8.846;2022-08-21T04:57:00;11.40;99.90
29295;DHT22;16305;48.566;8.846;2022-08-21T04:59:41;11.40;99.90
29295;DHT22;16305;48.566;8.846;2022-08-21T05:02:09;11.30;99.90
29295;DHT22;16305;48.566;8.846;2022-08-21T05:04:39;11.40;99.90
29295;DHT22;16305;48.566;8.846;2022-08-21T05:07:12;11.70;99.90
29295;DHT22;16305;48.566;8.846;2022-08-21T05:09:39;11.70;99.90
29295;DHT22;16305;48.566;8.846;2022-08-21T05:12:05;11.70;99.90
29295;DHT22;16305;48.566;8.846;2022-08-21T05:14:31;11.70;99.90
29295;DHT22;16305;48.566;8.846;2022-08-21T05:16:56;11.70;99.90
29295;DHT22;16305;48.566;8.846;2022-08-21T05:19:22;11.80;99.90
29295;DHT22;16305;48.566;8.846;2022-08-21T05:21:48;12.00;99.90
29295;DHT22;16305;48.566;8.846;2022-08-21T05:24:14;12.10;99.90
29295;DHT22;16305;48.566;8.846;2022-08-21T05:26:41;12.20;99.90
29295;DHT22;16305;48.566;8.846;2022-08-21T05:29:07;12.20;99.90
29295;DHT22;16305;48.566;8.846;2022-08-21T05:31:33;12.30;99.90
29295;DHT22;16305;48.566;8.846;2022-08-21T05:33:59;12.40;99.90
29295;DHT22;16305;48.566;8.846;2022-08-21T05:36:25;12.50;99.90
29295;DHT22;16305;48.566;8.846;2022-08-21T05:38:50;12.70;99.90
29295;DHT22;16305;48.566;8.846;2022-08-21T05:41:16;12.90;99.90
29295;DHT22;16305;48.566;8.846;2022-08-21T05:43:41;13.00;99.90
29295;DHT22;16305;48.566;8.846;2022-08-21T05:46:07;13.00;99.90
29295;DHT22;16305;48.566;8.846;2022-08-21T05:48:34;13.10;99.90
29295;DHT22;16305;48.566;8.846;2022-08-21T05:51:10;13.20;99.90
29295;DHT22;16305;48.566;8.846;2022-08-21T05:53:37;13.20;99.90
29295;DHT22;16305;48.566;8.846;2022-08-21T05:56:03;13.40;99.90
29295;DHT22;16305;48.566;8.846;2022-08-21T05:58:30;13.50;99.90
29295;DHT22;16305;48.566;8.846;2022-08-21T06:00:57;13.60;99.90
29295;DHT22;16305;48.566;8.846;2022-08-21T06:03:27;13.50;99.90
29295;DHT22;16305;48.566;8.846;2022-08-21T06:05:53;13.80;99.90
29295;DHT22;16305;48.566;8.846;2022-08-21T06:08:20;13.80;99.90
29295;DHT22;16305;48.566;8.846;2022-08-21T06:10:47;13.90;99.90
29295;DHT22;16305;48.566;8.846;2022-08-21T06:13:14;14.00;99.90
29295;DHT22;16305;48.566;8.846;2022-08-21T06:15:40;14.10;99.90
29295;DHT22;16305;48.566;8.846;2022-08-21T06:18:06;14.10;99.90
29295;DHT22;16305;48.566;8.846;2022-08-21T06:20:32;14.40;99.90
29295;DHT22;16305;48.566;8.846;2022-08-21T06:22:58;14.50;99.90
29295;DHT22;16305;48.566;8.846;2022-08-21T06:25:23;14.50;99.90
29295;DHT22;16305;48.566;8.846;2022-08-21T06:27:50;14.60;99.90
29295;DHT22;16305;48.566;8.846;2022-08-21T06:30:16;14.70;99.90
29295;DHT22;16305;48.566;8.846;2022-08-21T06:32:41;14.80;99.90
29295;DHT22;16305;48.566;8.846;2022-08-21T06:35:07;14.90;99.90
29295;DHT22;16305;48.566;8.846;2022-08-21T06:37:33;15.10;99.90
29295;DHT22;16305;48.566;8.846;2022-08-21T06:39:59;15.20;99.90
29295;DHT22;16305;48.566;8.846;2022-08-21T06:42:24;15.30;99.90
29295;DHT22;16305;48.566;8.846;2022-08-21T06:44:50;15.40;99.90
29295;DHT22;16305;48.566;8.846;2022-08-21T06:47:15;15.50;99.90
29295;DHT22;16305;48.566;8.846;2022-08-21T06:49:41;15.50;99.90
29295;DHT22;16305;48.566;8.846;2022-08-21T06:52:11;15.60;99.90
29295;DHT22;16305;48.566;8.846;2022-08-21T06:54:37;15.60;99.90
29295;DHT22;16305;48.566;8.846;2022-08-21T06:57:03;15.70;99.90
29295;DHT22;16305;48.566;8.846;2022-08-21T06:59:29;15.80;99.90
29295;DHT22;16305;48.566;8.846;2022-08-21T07:01:55;15.90;99.90
29295;DHT22;16305;48.566;8.846;2022-08-21T07:04:20;16.00;99.90
29295;DHT22;16305;48.566;8.846;2022-08-21T07:06:46;15.90;99.90
29295;DHT22;16305;48.566;8.846;2022-08-21T07:09:11;15.90;99.90
29295;DHT22;16305;48.566;8.846;2022-08-21T07:11:37;15.90;99.90
29295;DHT22;16305;48.566;8.846;2022-08-21T07:14:03;16.00;99.90
29295;DHT22;16305;48.566;8.846;2022-08-21T07:16:29;16.20;99.90
29295;DHT22;16305;48.566;8.846;2022-08-21T07:18:55;16.30;99.90
29295;DHT22;16305;48.566;8.846;2022-08-21T07:21:20;16.50;99.90
29295;DHT22;16305;48.566;8.846;2022-08-21T07:23:48;16.70;99.90
29295;DHT22;16305;48.566;8.846;2022-08-21T07:26:17;16.70;99.90
29295;DHT22;16305;48.566;8.846;2022-08-21T07:28:43;16.80;99.90
29295;DHT22;16305;48.566;8.846;2022-08-21T07:31:10;17.00;99.90
29295;DHT22;16305;48.566;8.846;2022-08-21T07:33:39;17.10;99.90
29295;DHT22;16305;48.566;8.846;2022-08-21T07:36:05;17.20;99.90
29295;DHT22;16305;48.566;8.846;2022-08-21T07:38:31;17.30;99.90
29295;DHT22;16305;48.566;8.846;2022-08-21T07:40:57;17.40;99.90
29295;DHT22;16305;48.566;8.846;2022-08-21T07:43:25;17.50;99.90
29295;DHT22;16305;48.566;8.846;2022-08-21T07:45:51;17.50;99.90
29295;DHT22;16305;48.566;8.846;2022-08-21T07:48:18;17.60;99.90
29295;DHT22;16305;48.566;8.846;2022-08-21T07:50:44;17.80;99.90
29295;DHT22;16305;48.566;8.846;2022-08-21T07:53:09;17.90;99.90
29295;DHT22;16305;48.566;8.846;2022-08-21T07:55:35;18.00;99.90
29295;DHT22;16305;48.566;8.846;2022-08-21T07:58:01;18.10;99.90
29295;DHT22;16305;48.566;8.846;2022-08-21T08:00:28;18.20;99.90
29295;DHT22;16305;48.566;8.846;2022-08-21T08:02:54;18.10;99.90
29295;DHT22;16305;48.566;8.846;2022-08-21T08:05:23;18.10;99.90
29295;DHT22;16305;48.566;8.846;2022-08-21T08:07:49;18.20;99.90
29295;DHT22;16305;48.566;8.846;2022-08-21T08:10:15;18.40;99.90
29295;DHT22;16305;48.566;8.846;2022-08-21T08:12:42;18.50;99.90
29295;DHT22;16305;48.566;8.846;2022-08-21T08:15:10;18.70;99.90
29295;DHT22;16305;48.566;8.846;2022-08-21T08:17:37;18.90;99.90
29295;DHT22;16305;48.566;8.846;2022-08-21T08:20:08;18.90;99.90
29295;DHT22;16305;48.566;8.846;2022-08-21T08:22:35;19.10;99.90
29295;DHT22;16305;48.566;8.846;2022-08-21T08:25:01;19.30;99.90
29295;DHT22;16305;48.566;8.846;2022-08-21T08:27:26;19.40;99.90
29295;DHT22;16305;48.566;8.846;2022-08-21T08:29:52;19.40;99.90
29295;DHT22;16305;48.566;8.846;2022-08-21T08:32:18;19.50;99.90
29295;DHT22;16305;48.566;8.846;2022-08-21T08:34:44;19.60;99.90
29295;DHT22;16305;48.566;8.846;2022-08-21T08:37:09;19.60;99.90
29295;DHT22;16305;48.566;8.846;2022-08-21T08:39:35;19.70;99.90
29295;DHT22;16305;48.566;8.846;2022-08-21T08:44:42;20.00;99.90
29295;DHT22;16305;48.566;8.846;2022-08-21T08:47:09;20.00;99.90
29295;DHT22;16305;48.566;8.846;2022-08-21T08:52:05;20.10;99.90
29295;DHT22;16305;48.566;8.846;2022-08-21T08:54:39;20.30;99.90
29295;DHT22;16305;48.566;8.846;2022-08-21T08:57:18;20.30;99.90
29295;DHT22;16305;48.566;8.846;2022-08-21T08:59:48;20.20;99.90
29295;DHT22;16305;48.566;8.846;2022-08-21T09:02:15;20.20;99.90
29295;DHT22;16305;48.566;8.846;2022-08-21T09:04:42;20.30;99.90
29295;DHT22;16305;48.566;8.846;2022-08-21T09:10:12;20.30;99.90
29295;DHT22;16305;48.566;8.846;2022-08-21T09:13:03;20.50;99.90
29295;DHT22;16305;48.566;8.846;2022-08-21T09:16:00;20.70;99.90
29295;DHT22;16305;48.566;8.846;2022-08-21T09:18:53;20.80;99.90
29295;DHT22;16305;48.566;8.846;2022-08-21T09:27:17;21.00;99.90
29295;DHT22;16305;48.566;8.846;2022-08-21T09:29:46;21.20;99.90
29295;DHT22;16305;48.566;8.846;2022-08-21T09:32:28;21.30;99.90
29295;DHT22;16305;48.566;8.846;2022-08-21T09:34:57;21.40;99.90
29295;DHT22;16305;48.566;8.846;2022-08-21T09:37:23;21.40;99.90
29295;DHT22;16305;48.566;8.846;2022-08-21T09:39:49;21.60;99.90
29295;DHT22;16305;48.566;8.846;2022-08-21T09:42:22;21.80;99.90
29295;DHT22;16305;48.566;8.846;2022-08-21T09:44:48;22.10;99.90
29295;DHT22;16305;48.566;8.846;2022-08-21T09:47:18;22.20;99.90
29295;DHT22;16305;48.566;8.846;2022-08-21T09:49:44;21.90;99.90
29295;DHT22;16305;48.566;8.846;2022-08-21T09:52:21;22.00;99.90
29295;DHT22;16305;48.566;8.846;2022-08-21T09:54:51;22.20;99.90
29295;DHT22;16305;48.566;8.846;2022-08-21T09:57:30;22.30;99.90
29295;DHT22;16305;48.566;8.846;2022-08-21T10:00:24;22.50;99.90
29295;DHT22;16305;48.566;8.846;2022-08-21T10:02:50;22.30;99.90
29295;DHT22;16305;48.566;8.846;2022-08-21T10:05:18;22.40;99.90
29295;DHT22;16305;48.566;8.846;2022-08-21T10:07:44;22.20;99.90
29295;DHT22;16305;48.566;8.846;2022-08-21T10:10:19;22.10;99.90
29295;DHT22;16305;48.566;8.846;2022-08-21T10:15:52;22.30;99.90
29295;DHT22;16305;48.566;8.846;2022-08-21T10:18:29;22.40;99.90
29295;DHT22;16305;48.566;8.846;2022-08-21T10:21:14;22.50;99.90
29295;DHT22;16305;48.566;8.846;2022-08-21T10:29:14;22.90;99.90
29295;DHT22;16305;48.566;8.846;2022-08-21T10:32:24;22.80;99.90
29295;DHT22;16305;48.566;8.846;2022-08-21T10:35:04;22.70;99.90
29295;DHT22;16305;48.566;8.846;2022-08-21T10:40:41;23.20;99.90
29295;DHT22;16305;48.566;8.846;2022-08-21T10:43:30;23.50;99.90
29295;DHT22;16305;48.566;8.846;2022-08-21T10:46:14;23.50;99.90
29295;DHT22;16305;48.566;8.846;2022-08-21T10:48:51;23.30;99.90
29295;DHT22;16305;48.566;8.846;2022-08-21T10:51:28;23.60;99.90
29295;DHT22;16305;48.566;8.846;2022-08-21T10:54:12;23.90;99.90
29295;DHT22;16305;48.566;8.846;2022-08-21T10:56:44;23.40;99.90
29295;DHT22;16305;48.566;8.846;2022-08-21T10:59:33;23.50;99.90
29295;DHT22;16305;48.566;8.846;2022-08-21T11:05:06;23.60;99.90
29295;DHT22;16305;48.566;8.846;2022-08-21T11:07:43;23.80;99.90
29295;DHT22;16305;48.566;8.846;2022-08-21T11:12:41;23.70;99.90
29295;DHT22;16305;48.566;8.846;2022-08-21T11:17:57;24.00;99.90
29295;DHT22;16305;48.566;8.846;2022-08-21T11:20:40;24.20;99.90
29295;DHT22;16305;48.566;8.846;2022-08-21T11:23:17;24.40;99.90
29295;DHT22;16305;48.566;8.846;2022-08-21T11:25:49;24.50;99.90
29295;DHT22;16305;48.566;8.846;2022-08-21T11:28:30;24.60;99.90
29295;DHT22;16305;48.566;8.846;2022-08-21T11:36:43;25.00;99.90
29295;DHT22;16305;48.566;8.846;2022-08-21T11:39:22;25.20;99.90
29295;DHT22;16305;48.566;8.846;2022-08-21T11:45:25;25.50;99.90
29295;DHT22;16305;48.566;8.846;2022-08-21T11:50:56;25.60;99.90
29295;DHT22;16305;48.566;8.846;2022-08-21T11:53:28;25.40;99.90
29295;DHT22;16305;48.566;8.846;2022-08-21T11:56:14;25.50;99.90
29295;DHT22;16305;48.566;8.846;2022-08-21T11:58:45;25.70;99.90
29295;DHT22;16305;48.566;8.846;2022-08-21T12:01:19;26.10;99.90
29295;DHT22;16305;48.566;8.846;2022-08-21T12:04:04;26.40;99.90
29295;DHT22;16305;48.566;8.846;2022-08-21T12:06:36;26.50;99.90
29295;DHT22;16305;48.566;8.846;2022-08-21T12:09:32;26.60;99.90
29295;DHT22;16305;48.566;8.846;2022-08-21T12:12:10;26.50;99.90
29295;DHT22;16305;48.566;8.846;2022-08-21T12:14:47;26.40;99.90
29295;DHT22;16305;48.566;8.846;2022-08-21T12:17:34;26.50;99.90
29295;DHT22;16305;48.566;8.846;2022-08-21T12:20:37;26.70;99.90
29295;DHT22;16305;48.566;8.846;2022-08-21T12:26:31;27.20;99.90
29295;DHT22;16305;48.566;8.846;2022-08-21T12:28:49;26.90;99.90
29295;DHT22;16305;48.566;8.846;2022-08-21T12:31:25;26.80;99.90
29295;DHT22;16305;48.566;8.846;2022-08-21T12:33:55;26.70;99.90
29295;DHT22;16305;48.566;8.846;2022-08-21T12:36:25;26.40;99.90
29295;DHT22;16305;48.566;8.846;2022-08-21T12:39:01;26.60;99.90
29295;DHT22;16305;48.566;8.846;2022-08-21T12:41:44;26.90;99.90
29295;DHT22;16305;48.566;8.846;2022-08-21T12:44:14;27.40;99.90
29295;DHT22;16305;48.566;8.846;2022-08-21T12:46:46;27.80;99.90
29295;DHT22;16305;48.566;8.846;2022-08-21T12:49:26;27.80;99.90
29295;DHT22;16305;48.566;8.846;2022-08-21T12:52:11;28.00;99.90
29295;DHT22;16305;48.566;8.846;2022-08-21T12:54:42;28.30;99.90
29295;DHT22;16305;48.566;8.846;2022-08-21T12:57:18;28.30;99.90
29295;DHT22;16305;48.566;8.846;2022-08-21T12:59:44;28.60;99.90
29295;DHT22;16305;48.566;8.846;2022-08-21T13:02:22;28.50;99.90
29295;DHT22;16305;48.566;8.846;2022-08-21T13:04:49;27.90;99.90
29295;DHT22;16305;48.566;8.846;2022-08-21T13:07:27;28.00;99.90
29295;DHT22;16305;48.566;8.846;2022-08-21T13:10:18;28.30;99.90
29295;DHT22;16305;48.566;8.846;2022-08-21T13:12:44;29.00;99.90
29295;DHT22;16305;48.566;8.846;2022-08-21T13:15:11;29.20;99.90
29295;DHT22;16305;48.566;8.846;2022-08-21T13:17:41;29.20;99.90
29295;DHT22;16305;48.566;8.846;2022-08-21T13:20:23;28.70;99.90
29295;DHT22;16305;48.566;8.846;2022-08-21T13:22:49;28.80;99.90
29295;DHT22;16305;48.566;8.846;2022-08-21T13:25:17;29.20;99.90
29295;DHT22;16305;48.566;8.846;2022-08-21T13:27:56;29.90;99.90
29295;DHT22;16305;48.566;8.846;2022-08-21T13:30:23;30.10;99.90
29295;DHT22;16305;48.566;8.846;2022-08-21T13:32:51;30.20;99.90
29295;DHT22;16305;48.566;8.846;2022-08-21T13:35:24;30.60;99.90
29295;DHT22;16305;48.566;8.846;2022-08-21T13:37:51;30.60;99.90
29295;DHT22;16305;48.566;8.846;2022-08-21T13:40:32;31.00;99.90
29295;DHT22;16305;48.566;8.846;2022-08-21T13:43:11;31.10;99.50
29295;DHT22;16305;48.566;8.846;2022-08-21T13:45:38;30.90;98.90
29295;DHT22;16305;48.566;8.846;2022-08-21T13:48:03;31.10;99.90
29295;DHT22;16305;48.566;8.846;2022-08-21T13:50:30;31.40;99.90
29295;DHT22;16305;48.566;8.846;2022-08-21T13:53:05;31.50;98.50
29295;DHT22;16305;48.566;8.846;2022-08-21T13:55:37;31.60;98.30
29295;DHT22;16305;48.566;8.846;2022-08-21T13:58:04;31.80;98.80
29295;DHT22;16305;48.566;8.846;2022-08-21T14:00:32;30.70;97.80
29295;DHT22;16305;48.566;8.846;2022-08-21T14:03:07;30.20;97.30
29295;DHT22;16305;48.566;8.846;2022-08-21T14:05:43;31.00;99.20
29295;DHT22;16305;48.566;8.846;2022-08-21T14:08:33;31.20;99.10
29295;DHT22;16305;48.566;8.846;2022-08-21T14:11:00;32.20;97.40
29295;DHT22;16305;48.566;8.846;2022-08-21T14:13:51;32.70;96.00
29295;DHT22;16305;48.566;8.846;2022-08-21T14:21:35;31.50;96.20
29295;DHT22;16305;48.566;8.846;2022-08-21T14:24:10;31.50;95.50
29295;DHT22;16305;48.566;8.846;2022-08-21T14:26:49;30.90;96.40
29295;DHT22;16305;48.566;8.846;2022-08-21T14:29:16;30.90;96.60
29295;DHT22;16305;48.566;8.846;2022-08-21T14:31:47;31.20;96.10
29295;DHT22;16305;48.566;8.846;2022-08-21T14:34:14;31.40;96.10
29295;DHT22;16305;48.566;8.846;2022-08-21T14:36:42;31.60;95.50
29295;DHT22;16305;48.566;8.846;2022-08-21T14:39:08;31.80;95.10
29295;DHT22;16305;48.566;8.846;2022-08-21T14:41:34;32.10;94.60
29295;DHT22;16305;48.566;8.846;2022-08-21T14:44:01;31.90;93.50
29295;DHT22;16305;48.566;8.846;2022-08-21T14:46:29;31.40;94.40
29295;DHT22;16305;48.566;8.846;2022-08-21T14:48:56;31.00;93.80
29295;DHT22;16305;48.566;8.846;2022-08-21T14:51:21;31.50;94.40
29295;DHT22;16305;48.566;8.846;2022-08-21T14:53:48;31.80;92.80
29295;DHT22;16305;48.566;8.846;2022-08-21T14:56:14;31.50;92.80
29295;DHT22;16305;48.566;8.846;2022-08-21T14:58:46;31.70;93.10
29295;DHT22;16305;48.566;8.846;2022-08-21T15:01:14;31.00;93.30
29295;DHT22;16305;48.566;8.846;2022-08-21T15:03:40;31.00;93.10
29295;DHT22;16305;48.566;8.846;2022-08-21T15:06:07;30.40;93.30
29295;DHT22;16305;48.566;8.846;2022-08-21T15:08:32;30.60;95.10
29295;DHT22;16305;48.566;8.846;2022-08-21T15:11:00;31.50;93.00
29295;DHT22;16305;48.566;8.846;2022-08-21T15:13:26;30.40;92.40
29295;DHT22;16305;48.566;8.846;2022-08-21T15:15:52;30.90;93.20
29295;DHT22;16305;48.566;8.846;2022-08-21T15:18:22;30.60;93.00
29295;DHT22;16305;48.566;8.846;2022-08-21T15:20:48;30.20;93.60
29295;DHT22;16305;48.566;8.846;2022-08-21T15:23:14;30.20;95.30
29295;DHT22;16305;48.566;8.846;2022-08-21T15:25:43;30.30;93.50
29295;DHT22;16305;48.566;8.846;2022-08-21T15:28:09;30.00;95.60
29295;DHT22;16305;48.566;8.846;2022-08-21T15:30:36;29.90;95.90
29295;DHT22;16305;48.566;8.846;2022-08-21T15:33:02;29.90;96.00
29295;DHT22;16305;48.566;8.846;2022-08-21T15:35:28;29.70;95.60
29295;DHT22;16305;48.566;8.846;2022-08-21T15:37:53;29.20;96.10
29295;DHT22;16305;48.566;8.846;2022-08-21T15:40:19;28.80;96.20
29295;DHT22;16305;48.566;8.846;2022-08-21T15:42:45;28.70;96.80
29295;DHT22;16305;48.566;8.846;2022-08-21T15:45:12;28.70;96.40
29295;DHT22;16305;48.566;8.846;2022-08-21T15:47:43;28.90;96.20
29295;DHT22;16305;48.566;8.846;2022-08-21T15:50:20;29.60;95.50
29295;DHT22;16305;48.566;8.846;2022-08-21T15:52:46;29.90;95.00
29295;DHT22;16305;48.566;8.846;2022-08-21T15:55:11;29.90;96.00
29295;DHT22;16305;48.566;8.846;2022-08-21T15:57:38;31.10;94.80
29295;DHT22;16305;48.566;8.846;2022-08-21T16:00:16;31.30;94.10
29295;DHT22;16305;48.566;8.846;2022-08-21T16:02:45;31.20;95.00
29295;DHT22;16305;48.566;8.846;2022-08-21T16:05:12;31.00;94.30
29295;DHT22;16305;48.566;8.846;2022-08-21T16:07:38;30.80;94.20
29295;DHT22;16305;48.566;8.846;2022-08-21T16:10:05;30.60;93.90
29295;DHT22;16305;48.566;8.846;2022-08-21T16:12:34;30.30;94.70
29295;DHT22;16305;48.566;8.846;2022-08-21T16:15:01;29.70;96.60
29295;DHT22;16305;48.566;8.846;2022-08-21T16:17:32;29.20;97.60
29295;DHT22;16305;48.566;8.846;2022-08-21T16:20:00;29.00;96.70
29295;DHT22;16305;48.566;8.846;2022-08-21T16:22:26;28.90;96.10
29295;DHT22;16305;48.566;8.846;2022-08-21T16:24:51;28.40;98.50
29295;DHT22;16305;48.566;8.846;2022-08-21T16:27:17;27.80;99.90
29295;DHT22;16305;48.566;8.846;2022-08-21T16:29:44;27.70;99.90
29295;DHT22;16305;48.566;8.846;2022-08-21T16:32:10;27.70;98.90
29295;DHT22;16305;48.566;8.846;2022-08-21T16:34:37;28.40;98.10
29295;DHT22;16305;48.566;8.846;2022-08-21T16:37:04;28.90;99.10